createdAt,value
2019-06-27T00:00:20.034Z,8.30
2019-06-27T00:03:28.045Z,8.33
2019-06-27T00:06:36.781Z,8.10
2019-06-27T00:09:44.599Z,9.03
2019-06-27T00:12:52.351Z,8.70
2019-06-27T00:16:00.690Z,7.80
2019-06-27T00:19:08.509Z,7.67
2019-06-27T00:22:16.468Z,7.97
2019-06-27T00:25:24.160Z,7.43
2019-06-27T00:28:32.237Z,8.30
2019-06-27T00:31:40.044Z,8.80
2019-06-27T00:34:47.700Z,8.03
2019-06-27T00:37:55.468Z,8.53
2019-06-27T00:41:03.285Z,8.23
2019-06-27T00:44:11.181Z,7.70
2019-06-27T00:47:18.923Z,8.37
2019-06-27T00:50:27.076Z,8.33
2019-06-27T00:53:35.107Z,8.40
2019-06-27T00:56:42.840Z,8.00
2019-06-27T00:59:50.797Z,9.10
2019-06-27T01:02:58.964Z,8.47
2019-06-27T01:06:07.073Z,9.40
2019-06-27T01:09:14.942Z,8.20
2019-06-27T01:12:23.013Z,8.93
2019-06-27T01:15:30.882Z,9.47
2019-06-27T01:18:39.003Z,8.53
2019-06-27T01:21:47.155Z,8.40
2019-06-27T01:24:56.195Z,9.43
2019-06-27T01:28:04.070Z,8.70
2019-06-27T01:31:12.839Z,8.50
2019-06-27T01:34:20.745Z,8.63
2019-06-27T01:37:28.461Z,9.27
2019-06-27T01:40:37.257Z,8.20
2019-06-27T01:43:44.911Z,9.80
2019-06-27T01:46:52.579Z,8.37
2019-06-27T01:50:00.328Z,8.63
2019-06-27T01:53:08.313Z,10.00
2019-06-27T01:56:16.390Z,8.77
2019-06-27T01:59:24.043Z,9.10
2019-06-27T02:02:31.766Z,9.37
2019-06-27T02:05:39.576Z,9.40
2019-06-27T02:08:47.220Z,9.00
2019-06-27T02:11:55.098Z,9.73
2019-06-27T02:15:02.922Z,9.27
2019-06-27T02:18:10.713Z,10.23
2019-06-27T02:21:18.789Z,10.20
2019-06-27T02:24:26.567Z,10.43
2019-06-27T02:27:34.366Z,9.07
2019-06-27T02:30:45.051Z,9.17
2019-06-27T02:33:52.833Z,9.80
2019-06-27T02:37:00.773Z,10.17
2019-06-27T02:40:09.786Z,9.10
2019-06-27T02:43:17.756Z,10.70
2019-06-27T02:46:25.885Z,9.63
2019-06-27T02:49:33.966Z,10.13
2019-06-27T02:52:42.274Z,9.90
2019-06-27T02:55:50.284Z,9.33
2019-06-27T02:58:58.270Z,9.47
2019-06-27T03:02:06.324Z,10.43
2019-06-27T03:05:14.637Z,9.33
2019-06-27T03:08:22.617Z,10.37
2019-06-27T03:11:30.660Z,9.63
2019-06-27T03:14:39.603Z,10.20
2019-06-27T03:17:48.585Z,11.87
2019-06-27T03:20:56.693Z,10.00
2019-06-27T03:24:04.832Z,9.77
2019-06-27T03:27:12.543Z,11.17
2019-06-27T03:30:20.827Z,9.70
2019-06-27T03:33:28.668Z,10.37
2019-06-27T03:36:36.449Z,10.10
2019-06-27T03:39:45.048Z,10.87
2019-06-27T03:42:52.921Z,10.70
2019-06-27T03:46:00.688Z,9.90
2019-06-27T03:49:08.528Z,9.73
2019-06-27T03:52:16.731Z,10.10
2019-06-27T03:55:24.647Z,10.30
2019-06-27T03:58:32.925Z,9.80
2019-06-27T04:01:40.918Z,9.23
2019-06-27T04:04:48.937Z,9.83
2019-06-27T04:07:57.007Z,9.27
2019-06-27T04:11:05.097Z,9.47
2019-06-27T04:14:13.182Z,9.90
2019-06-27T04:17:21.175Z,10.10
2019-06-27T04:20:29.091Z,9.43
2019-06-27T04:23:38.213Z,9.07
2019-06-27T04:26:46.228Z,8.80
2019-06-27T04:29:54.323Z,8.17
2019-06-27T04:33:02.226Z,9.23
2019-06-27T04:36:10.216Z,8.80
2019-06-27T04:39:18.340Z,8.67
2019-06-27T04:42:26.377Z,10.20
2019-06-27T04:45:34.383Z,9.60
2019-06-27T04:48:42.839Z,8.77
2019-06-27T04:51:50.811Z,8.30
2019-06-27T04:55:03.024Z,9.07
2019-06-27T04:58:09.258Z,9.23
2019-06-27T05:01:17.233Z,9.10
2019-06-27T05:04:25.678Z,8.70
2019-06-27T05:07:33.657Z,7.40
2019-06-27T05:10:41.676Z,8.40
2019-06-27T05:13:49.698Z,8.57
2019-06-27T05:16:59.542Z,8.60
2019-06-27T05:20:07.660Z,8.63
2019-06-27T05:23:15.761Z,8.40
2019-06-27T05:26:23.820Z,8.70
2019-06-27T05:29:33.222Z,8.93
2019-06-27T05:32:41.218Z,10.10
2019-06-27T05:35:49.508Z,9.53
2019-06-27T05:38:57.592Z,10.43
2019-06-27T05:42:06.761Z,10.57
2019-06-27T05:45:15.051Z,10.87
2019-06-27T05:48:23.310Z,11.30
2019-06-27T05:51:32.979Z,9.27
2019-06-27T05:54:42.800Z,12.00
2019-06-27T05:57:50.869Z,12.57
2019-06-27T06:00:58.923Z,12.47
2019-06-27T06:04:06.770Z,12.30
2019-06-27T06:07:14.411Z,12.27
2019-06-27T06:10:22.570Z,12.50
2019-06-27T06:13:30.272Z,12.67
2019-06-27T06:16:38.163Z,12.00
2019-06-27T06:19:46.144Z,13.00
2019-06-27T06:22:53.973Z,14.57
2019-06-27T06:26:02.106Z,13.10
2019-06-27T06:29:10.180Z,14.87
2019-06-27T06:32:18.276Z,12.90
2019-06-27T06:35:26.087Z,12.77
2019-06-27T06:38:33.747Z,12.93
2019-06-27T06:41:41.787Z,12.83
2019-06-27T06:44:49.608Z,12.10
2019-06-27T06:47:57.449Z,12.80
2019-06-27T06:51:05.607Z,11.53
2019-06-27T06:54:13.376Z,11.67
2019-06-27T06:57:22.229Z,10.43
2019-06-27T07:00:30.054Z,11.13
2019-06-27T07:03:39.968Z,12.47
2019-06-27T07:06:47.920Z,11.17
2019-06-27T07:09:55.909Z,12.00
2019-06-27T07:13:03.740Z,10.57
2019-06-27T07:16:13.268Z,10.27
2019-06-27T07:19:21.099Z,10.13
2019-06-27T07:22:29.473Z,9.97
2019-06-27T07:25:37.191Z,9.60
2019-06-27T07:28:45.377Z,9.50
2019-06-27T07:31:53.456Z,8.67
2019-06-27T07:35:07.372Z,9.10
2019-06-27T07:38:16.173Z,9.13
2019-06-27T07:41:23.972Z,8.33
2019-06-27T07:44:32.625Z,8.17
2019-06-27T07:47:40.912Z,8.93
2019-06-27T07:50:49.267Z,9.00
2019-06-27T07:53:58.311Z,8.70
2019-06-27T07:57:06.141Z,8.40
2019-06-27T08:00:16.399Z,8.80
2019-06-27T08:03:24.142Z,9.00
2019-06-27T08:06:32.416Z,9.40
2019-06-27T08:09:40.370Z,8.70
2019-06-27T08:12:48.289Z,8.70
2019-06-27T08:15:55.966Z,8.67
2019-06-27T08:19:03.707Z,8.70
2019-06-27T08:22:11.456Z,7.97
2019-06-27T08:25:19.338Z,9.17
2019-06-27T08:28:27.178Z,7.83
2019-06-27T08:31:50.294Z,8.80
2019-06-27T08:34:45.787Z,9.07
2019-06-27T08:37:53.565Z,8.40
2019-06-27T08:41:01.576Z,8.97
2019-06-27T08:44:10.383Z,8.70
2019-06-27T08:47:18.098Z,8.83
2019-06-27T08:50:26.424Z,8.53
2019-06-27T08:53:34.319Z,9.30
2019-06-27T08:56:42.014Z,8.67
2019-06-27T08:59:49.679Z,8.10
2019-06-27T09:02:57.630Z,8.73
2019-06-27T09:06:05.625Z,10.10
2019-06-27T09:09:13.962Z,7.83
2019-06-27T09:12:22.125Z,8.60
2019-06-27T09:15:30.294Z,8.83
2019-06-27T09:18:38.156Z,9.23
2019-06-27T09:21:45.895Z,8.80
2019-06-27T09:24:53.671Z,8.30
2019-06-27T09:28:03.236Z,8.27
2019-06-27T09:31:11.082Z,8.27
2019-06-27T09:34:21.359Z,8.03
2019-06-27T09:37:28.817Z,8.43
2019-06-27T09:40:36.817Z,8.03
2019-06-27T09:43:44.592Z,8.80
2019-06-27T09:46:52.442Z,8.37
2019-06-27T09:50:00.314Z,8.83
2019-06-27T09:53:08.387Z,8.30
2019-06-27T09:56:16.613Z,8.33
2019-06-27T09:59:24.863Z,8.17
2019-06-27T10:02:41.891Z,9.07
2019-06-27T10:05:42.759Z,8.40
2019-06-27T10:08:50.669Z,8.47
2019-06-27T10:11:58.525Z,8.10
2019-06-27T10:15:07.044Z,9.10
2019-06-27T10:18:15.113Z,8.20
2019-06-27T10:21:22.828Z,9.30
2019-06-27T10:24:30.989Z,11.13
2019-06-27T10:27:38.845Z,8.43
2019-06-27T10:30:49.362Z,8.77
2019-06-27T10:33:57.422Z,8.73
2019-06-27T10:37:05.596Z,8.80
2019-06-27T10:40:15.278Z,9.17
2019-06-27T10:43:23.350Z,9.03
2019-06-27T10:46:31.106Z,8.47
2019-06-27T10:49:38.881Z,9.50
2019-06-27T10:52:47.065Z,8.87
2019-06-27T10:55:55.343Z,8.00
2019-06-27T10:59:03.243Z,7.83
2019-06-27T11:02:11.045Z,7.57
2019-06-27T11:05:18.955Z,8.97
2019-06-27T11:08:33.787Z,8.20
2019-06-27T11:11:41.451Z,8.67
2019-06-27T11:14:59.358Z,8.00
2019-06-27T11:17:59.638Z,8.30
2019-06-27T11:21:07.498Z,7.87
2019-06-27T11:24:15.354Z,7.60
2019-06-27T11:27:27.174Z,8.37
2019-06-27T11:30:33.221Z,7.33
2019-06-27T11:33:40.987Z,7.87
2019-06-27T11:36:48.758Z,7.60
2019-06-27T11:39:56.477Z,7.80
2019-06-27T11:43:04.824Z,8.23
2019-06-27T11:46:12.636Z,7.80
2019-06-27T11:49:20.534Z,7.90
2019-06-27T11:52:28.787Z,8.10
2019-06-27T11:55:37.669Z,8.83
2019-06-27T11:58:45.379Z,8.77
2019-06-27T12:01:53.714Z,8.17
2019-06-27T12:05:02.714Z,9.03
2019-06-27T12:08:11.144Z,8.30
2019-06-27T12:11:19.537Z,7.50
2019-06-27T12:14:28.076Z,7.67
2019-06-27T12:17:36.179Z,8.30
2019-06-27T12:20:45.484Z,8.60
2019-06-27T12:23:55.205Z,7.60
2019-06-27T12:27:11.704Z,8.40
2019-06-27T12:30:20.226Z,8.33
2019-06-27T12:33:28.197Z,8.60
2019-06-27T12:36:35.943Z,8.23
2019-06-27T12:39:43.797Z,7.23
2019-06-27T12:42:52.187Z,7.33
2019-06-27T12:46:00.011Z,7.53
2019-06-27T12:49:08.096Z,8.17
2019-06-27T12:52:15.846Z,7.87
2019-06-27T12:55:24.012Z,7.67
2019-06-27T12:58:33.732Z,7.93
2019-06-27T13:01:41.754Z,7.90
2019-06-27T13:04:49.778Z,7.83
2019-06-27T13:07:58.487Z,8.33
2019-06-27T13:11:06.809Z,8.73
2019-06-27T13:14:14.857Z,8.70
2019-06-27T13:17:22.730Z,9.07
2019-06-27T13:20:31.725Z,8.83
2019-06-27T13:23:39.715Z,8.77
2019-06-27T13:26:47.567Z,8.70
2019-06-27T13:29:55.618Z,8.90
2019-06-27T13:33:04.678Z,7.83
2019-06-27T13:36:12.366Z,8.70
2019-06-27T13:39:20.767Z,8.37
2019-06-27T13:42:29.728Z,7.90
2019-06-27T13:45:38.888Z,8.60
2019-06-27T13:48:46.804Z,8.87
2019-06-27T13:51:54.756Z,8.37
2019-06-27T13:55:02.721Z,9.27
2019-06-27T13:58:11.151Z,8.97
2019-06-27T14:01:19.044Z,8.20
2019-06-27T14:04:27.213Z,8.63
2019-06-27T14:07:35.892Z,8.67
2019-06-27T14:10:43.721Z,10.00
2019-06-27T14:13:53.279Z,9.10
2019-06-27T14:17:01.209Z,9.33
2019-06-27T14:20:09.810Z,8.97
2019-06-27T14:23:17.589Z,9.13
2019-06-27T14:26:26.709Z,10.03
2019-06-27T14:29:34.514Z,8.20
2019-06-27T14:32:42.318Z,8.60
2019-06-27T14:35:50.509Z,8.77
2019-06-27T14:38:58.720Z,8.20
2019-06-27T14:42:06.728Z,9.17
2019-06-27T14:45:14.843Z,8.00
2019-06-27T14:48:22.874Z,8.87
2019-06-27T14:51:31.131Z,8.03
2019-06-27T14:54:38.977Z,7.80
2019-06-27T14:57:47.443Z,8.20
2019-06-27T15:00:55.761Z,8.07
2019-06-27T15:04:03.545Z,7.67
2019-06-27T15:07:11.442Z,8.23
2019-06-27T15:10:19.583Z,7.97
2019-06-27T15:13:27.518Z,8.40
2019-06-27T15:16:35.347Z,7.57
2019-06-27T15:19:44.287Z,8.50
2019-06-27T15:22:52.930Z,8.03
2019-06-27T15:26:00.827Z,8.37
2019-06-27T15:29:08.782Z,8.40
2019-06-27T15:32:17.059Z,9.77
2019-06-27T15:35:24.942Z,8.77
2019-06-27T15:38:33.193Z,8.43
2019-06-27T15:41:41.086Z,9.03
2019-06-27T15:44:49.328Z,8.83
2019-06-27T15:47:57.293Z,9.03
2019-06-27T15:51:05.233Z,8.40
2019-06-27T15:54:13.196Z,8.80
2019-06-27T15:57:21.473Z,8.57
2019-06-27T16:00:29.374Z,9.00
2019-06-27T16:03:37.416Z,8.80
2019-06-27T16:06:45.494Z,8.77
2019-06-27T16:09:53.372Z,8.53
2019-06-27T16:13:02.829Z,8.33
2019-06-27T16:16:12.118Z,8.83
2019-06-27T16:19:21.562Z,8.87
2019-06-27T16:22:29.628Z,8.33
2019-06-27T16:25:37.878Z,8.43
2019-06-27T16:28:46.528Z,8.00
2019-06-27T16:31:54.499Z,7.77
2019-06-27T16:35:04.171Z,7.53
2019-06-27T16:38:12.235Z,8.30
2019-06-27T16:41:20.778Z,7.67
2019-06-27T16:44:28.566Z,7.90
2019-06-27T16:47:36.453Z,7.80
2019-06-27T16:50:44.812Z,7.80
2019-06-27T16:53:52.728Z,7.03
2019-06-27T16:57:00.573Z,6.70
2019-06-27T17:00:09.227Z,6.90
2019-06-27T17:03:20.785Z,7.23
2019-06-27T17:06:41.605Z,7.07
2019-06-27T17:09:38.238Z,6.77
2019-06-27T17:12:46.231Z,6.57
2019-06-27T17:15:54.236Z,5.97
2019-06-27T17:19:02.025Z,6.40
2019-06-27T17:22:10.880Z,6.47
2019-06-27T17:25:18.918Z,6.40
2019-06-27T17:28:26.831Z,6.47
2019-06-27T17:31:34.831Z,6.33
2019-06-27T17:34:42.530Z,5.70
2019-06-27T17:37:50.402Z,6.07
2019-06-27T17:40:58.367Z,6.07
2019-06-27T17:44:06.528Z,5.30
2019-06-27T17:47:14.512Z,5.37
2019-06-27T17:50:22.448Z,5.87
2019-06-27T17:53:30.429Z,4.87
2019-06-27T17:56:38.381Z,5.07
2019-06-27T17:59:47.102Z,4.37
2019-06-27T18:02:54.922Z,3.40
2019-06-27T18:06:03.180Z,3.27
2019-06-27T18:09:11.295Z,2.40
2019-06-27T18:12:19.493Z,3.10
2019-06-27T18:15:28.551Z,2.57
2019-06-27T18:18:36.937Z,2.20
2019-06-27T18:21:45.100Z,2.20
2019-06-27T18:24:53.727Z,2.13
2019-06-27T18:28:02.724Z,2.20
2019-06-27T18:31:10.935Z,1.87
2019-06-27T18:34:18.740Z,1.90
2019-06-27T18:37:30.056Z,1.80
2019-06-27T18:40:37.124Z,1.70
2019-06-27T18:43:44.918Z,2.20
2019-06-27T18:46:52.842Z,1.93
2019-06-27T18:50:07.098Z,1.87
2019-06-27T18:53:15.008Z,1.67
2019-06-27T18:56:23.035Z,1.57
2019-06-27T18:59:32.046Z,1.67
2019-06-27T19:02:40.057Z,1.90
2019-06-27T19:05:47.852Z,1.87
2019-06-27T19:08:56.092Z,1.80
2019-06-27T19:12:03.957Z,1.80
2019-06-27T19:15:12.332Z,1.80
2019-06-27T19:18:38.519Z,1.37
2019-06-27T19:22:23.668Z,2.57
2019-06-27T19:25:34.811Z,1.30
2019-06-27T19:28:42.960Z,1.90
2019-06-27T19:31:50.901Z,2.40
2019-06-27T19:34:59.141Z,2.37
2019-06-27T19:38:07.300Z,1.63
2019-06-27T19:41:15.886Z,1.50
2019-06-27T19:44:23.728Z,1.50
2019-06-27T19:47:32.838Z,1.40
2019-06-27T19:50:41.035Z,2.20
2019-06-27T19:53:48.950Z,1.23
2019-06-27T19:56:57.180Z,2.03
2019-06-27T20:00:05.548Z,1.27
2019-06-27T20:03:13.564Z,1.60
2019-06-27T20:06:21.650Z,1.43
2019-06-27T20:09:29.732Z,1.20
2019-06-27T20:12:37.717Z,1.40
2019-06-27T20:15:45.727Z,1.13
2019-06-27T20:18:54.266Z,1.27
2019-06-27T20:22:02.570Z,1.23
2019-06-27T20:25:10.620Z,1.10
2019-06-27T20:28:18.834Z,1.47
2019-06-27T20:31:26.705Z,1.63
2019-06-27T20:34:34.591Z,1.50
2019-06-27T20:38:34.360Z,1.20
2019-06-27T20:41:55.821Z,1.50
2019-06-27T20:45:13.915Z,1.43
2019-06-27T20:48:35.234Z,1.70
2019-06-27T20:52:00.812Z,1.40
2019-06-27T20:55:11.511Z,1.27
2019-06-27T20:58:19.320Z,1.60
2019-06-27T21:01:27.147Z,1.60
2019-06-27T21:04:34.907Z,1.97
2019-06-27T21:07:42.592Z,1.43
2019-06-27T21:10:50.368Z,1.40
2019-06-27T21:13:58.265Z,1.53
2019-06-27T21:17:08.984Z,1.30
2019-06-27T21:20:17.659Z,1.63
2019-06-27T21:23:25.527Z,1.53
2019-06-27T21:26:33.460Z,1.50
2019-06-27T21:29:41.186Z,1.47
2019-06-27T21:32:48.922Z,1.60
2019-06-27T21:35:56.723Z,1.67
2019-06-27T21:39:07.846Z,1.47
2019-06-27T21:42:15.483Z,1.70
2019-06-27T21:45:23.356Z,1.60
2019-06-27T21:48:31.010Z,1.70
2019-06-27T21:51:39.216Z,1.77
2019-06-27T21:54:46.942Z,1.67
2019-06-27T21:57:55.059Z,1.67
2019-06-27T22:01:02.861Z,1.47
2019-06-27T22:04:10.992Z,1.50
2019-06-27T22:07:18.787Z,1.60
2019-06-27T22:10:26.523Z,1.40
2019-06-27T22:13:34.333Z,1.60
2019-06-27T22:16:42.516Z,1.40
2019-06-27T22:19:50.244Z,1.57
2019-06-27T22:22:59.126Z,1.50
2019-06-27T22:26:07.211Z,1.60
2019-06-27T22:29:15.208Z,1.13
2019-06-27T22:32:23.011Z,1.67
2019-06-27T22:35:30.887Z,1.50
2019-06-27T22:38:56.351Z,1.47
2019-06-27T22:42:22.034Z,1.53
2019-06-27T22:45:47.857Z,1.57
2019-06-27T22:48:54.735Z,1.40
2019-06-27T22:52:20.220Z,1.67
2019-06-27T22:55:28.362Z,1.67
2019-06-27T22:58:36.113Z,1.70
2019-06-27T23:01:43.841Z,1.40
2019-06-27T23:04:51.684Z,1.70
2019-06-27T23:07:59.370Z,1.57
2019-06-27T23:11:07.117Z,1.50
2019-06-27T23:14:14.784Z,1.70
2019-06-27T23:17:22.454Z,2.10
2019-06-27T23:20:31.181Z,1.40
2019-06-27T23:23:39.280Z,1.83
2019-06-27T23:26:47.314Z,1.70
2019-06-27T23:29:54.976Z,1.57
2019-06-27T23:33:02.713Z,1.40
2019-06-27T23:36:10.448Z,1.70
2019-06-27T23:39:18.194Z,1.60
2019-06-27T23:42:25.841Z,1.53
2019-06-27T23:45:33.778Z,1.70
2019-06-27T23:48:41.506Z,2.00
2019-06-27T23:51:49.233Z,1.77
2019-06-27T23:54:56.998Z,1.90
2019-06-27T23:58:04.955Z,1.53
